Impacts METAR Board
IDs:

KLGA - New York/La Guardia, NY, US

Updated at: 1200 UTC 23 Mar 2019
Potential Impact None Slight Moderate High
Time 23/00Z 23/01Z 23/02Z 23/03Z 23/04Z 23/05Z 23/06Z 23/07Z 23/08Z 23/09Z 23/10Z 23/11Z 23/12Z
Temp45 44 43 42 41 38 37 36 35 35 35 35 35
Dewpt28 28 27 29 27 28 25 23 21 21 20 20 22
Altim29.45 29.48 29.50 29.51 29.52 29.54 29.57 29.59 29.61 29.64 29.66 29.70 29.72
VIS10 10 10 10 10 10 10 10 10 10 10 10 10
CIG-- -- -- 39 41 60 48 44 70 42 110 41 150
CoverSCTFEWSCTBKNBKNOVCOVCOVCOVCBKNOVCBKNBKN
FltCatVFRVFRVFRVFRVFRVFRVFRVFRVFRVFRVFRVFRVFR
WX--------------------------
WDir270290270280290280290300290300300300290
WSpd17 16 16 18 23 21 21 23 22 24 20 19 18
WGst25 25 25 32 33 31 35 34 29 31 36 29 31
Raw hourly METARs
KLGA 222351Z 27017G25KT 10SM FEW040 SCT060 07/M02 A2945 RMK AO2 PK WND 27029/2327 SLP972 60000 T00721022 10094 20067 53026
KLGA 230051Z 29016G25KT 10SM FEW040 FEW060 07/M02 A2948 RMK AO2 PK WND 29026/2358 SLP981 T00671022
KLGA 230151Z 27016G25KT 10SM SCT045 06/M03 A2950 RMK AO2 PK WND 28026/0055 SLP988 T00611028
KLGA 230251Z 28018G32KT 10SM BKN039 BKN046 BKN110 06/M02 A2951 RMK AO2 PK WND 26032/0243 SLP991 T00561017 51019
KLGA 230351Z 29023G33KT 10SM BKN041 BKN060 BKN100 05/M03 A2952 RMK AO2 PK WND 30033/0342 SLP997 T00501028
KLGA 230451Z 28021G31KT 10SM FEW045 BKN060 OVC075 03/M02 A2954 RMK AO2 PK WND 31036/0356 SLP003 T00331022 400940033
KLGA 230551Z 29021G35KT 10SM SCT040 BKN048 OVC070 03/M04 A2957 RMK AO2 PK WND 29041/0502 SLP012 T00281039 10072 20028 53021
KLGA 230651Z 30023G34KT 10SM FEW037 OVC044 02/M05 A2959 RMK AO2 PK WND 30037/0603 UPB0554E12SNB18E38 SLP020 P0000 T00221050
KLGA 230751Z 29022G29KT 10SM FEW038 SCT060 OVC070 02/M06 A2961 RMK AO2 PK WND 29038/0727 SLP027 T00171061
KLGA 230851Z 30024G31KT 10SM BKN042 BKN070 BKN095 02/M06 A2964 RMK AO2 PK WND 30035/0811 SLP035 60000 T00171061 53023
KLGA 230951Z 30020G36KT 10SM FEW042 SCT070 OVC110 02/M07 A2966 RMK AO2 PK WND 29036/0935 SLP044 T00171067
KLGA 231051Z 30019G29KT 10SM BKN041 BKN095 BKN150 02/M07 A2970 RMK AO2 PK WND 31034/0954 SLP056 T00171067
KLGA 231151Z 29018G31KT 10SM FEW039 FEW095 BKN150 02/M06 A2972 RMK AO2 PK WND 29032/1105 SLP064 931000 60000 70006 T00171056 10028 20017 52029



Page loaded:  12:16 UTC  |   05:16 AM Pacific  |   06:16 AM Mountain  |   07:16 AM Central  |   08:16 AM Eastern

 

ADVISORIES

FORECASTS

FORECASTS

OBSERVATIONS

USER TOOLS

ABOUT US